sensor_id;sensor_type;location;lat;lon;timestamp;pressure;altitude;pressure_sealevel;temperature;humidity
75045;BME280;63614;56.026;35.960;2022-12-07T00:00:30;100128.31;;;-7.49;55.67
75045;BME280;63614;56.026;35.960;2022-12-07T00:02:56;100129.22;;;-7.50;56.14
75045;BME280;63614;56.026;35.960;2022-12-07T00:05:22;100130.50;;;-7.63;55.91
75045;BME280;63614;56.026;35.960;2022-12-07T00:07:48;100143.97;;;-7.39;55.63
75045;BME280;63614;56.026;35.960;2022-12-07T00:10:14;100129.91;;;-7.46;55.60
75045;BME280;63614;56.026;35.960;2022-12-07T00:12:40;100128.88;;;-7.64;55.65
75045;BME280;63614;56.026;35.960;2022-12-07T00:15:06;100130.34;;;-7.58;55.67
75045;BME280;63614;56.026;35.960;2022-12-07T00:17:32;100124.31;;;-7.54;55.87
75045;BME280;63614;56.026;35.960;2022-12-07T00:19:59;100132.97;;;-7.61;55.77
75045;BME280;63614;56.026;35.960;2022-12-07T00:22:25;100130.84;;;-7.49;55.27
75045;BME280;63614;56.026;35.960;2022-12-07T00:24:50;100126.84;;;-7.54;55.80
75045;BME280;63614;56.026;35.960;2022-12-07T00:27:16;100122.16;;;-7.65;56.12
75045;BME280;63614;56.026;35.960;2022-12-07T00:29:42;100116.19;;;-7.62;56.17
75045;BME280;63614;56.026;35.960;2022-12-07T00:32:08;100113.03;;;-7.69;56.08
75045;BME280;63614;56.026;35.960;2022-12-07T00:34:34;100108.94;;;-7.72;56.12
75045;BME280;63614;56.026;35.960;2022-12-07T00:36:59;100114.91;;;-7.74;55.86
75045;BME280;63614;56.026;35.960;2022-12-07T00:39:25;100116.34;;;-7.67;55.81
75045;BME280;63614;56.026;35.960;2022-12-07T00:41:51;100113.25;;;-7.75;55.85
75045;BME280;63614;56.026;35.960;2022-12-07T00:44:17;100115.94;;;-7.80;56.27
75045;BME280;63614;56.026;35.960;2022-12-07T00:46:42;100110.78;;;-7.77;56.38
75045;BME280;63614;56.026;35.960;2022-12-07T00:49:08;100119.22;;;-7.78;56.39
75045;BME280;63614;56.026;35.960;2022-12-07T00:51:34;100111.59;;;-7.76;56.25
75045;BME280;63614;56.026;35.960;2022-12-07T00:54:00;100117.84;;;-7.87;56.24
75045;BME280;63614;56.026;35.960;2022-12-07T00:56:27;100117.78;;;-7.85;56.39
75045;BME280;63614;56.026;35.960;2022-12-07T00:58:59;100118.56;;;-7.83;56.54
75045;BME280;63614;56.026;35.960;2022-12-07T01:01:27;100112.91;;;-7.90;56.55
75045;BME280;63614;56.026;35.960;2022-12-07T01:03:53;100106.16;;;-7.89;56.36
75045;BME280;63614;56.026;35.960;2022-12-07T01:06:20;100111.81;;;-7.82;56.31
75045;BME280;63614;56.026;35.960;2022-12-07T01:08:46;100103.97;;;-7.75;55.99
75045;BME280;63614;56.026;35.960;2022-12-07T01:11:15;100115.09;;;-7.80;56.40
75045;BME280;63614;56.026;35.960;2022-12-07T01:13:41;100112.22;;;-7.95;56.33
75045;BME280;63614;56.026;35.960;2022-12-07T01:16:10;100114.28;;;-8.06;56.82
75045;BME280;63614;56.026;35.960;2022-12-07T01:18:37;100104.94;;;-8.04;56.57
75045;BME280;63614;56.026;35.960;2022-12-07T01:21:11;100111.41;;;-7.95;56.60
75045;BME280;63614;56.026;35.960;2022-12-07T01:23:37;100101.41;;;-7.98;56.60
75045;BME280;63614;56.026;35.960;2022-12-07T01:26:10;100105.03;;;-8.06;56.48
75045;BME280;63614;56.026;35.960;2022-12-07T01:28:36;100113.56;;;-8.10;56.62
75045;BME280;63614;56.026;35.960;2022-12-07T01:31:04;100104.44;;;-8.14;56.79
75045;BME280;63614;56.026;35.960;2022-12-07T01:33:33;100106.91;;;-8.12;57.04
75045;BME280;63614;56.026;35.960;2022-12-07T01:36:17;100109.34;;;-8.09;57.04
75045;BME280;63614;56.026;35.960;2022-12-07T01:38:44;100098.63;;;-8.16;56.79
75045;BME280;63614;56.026;35.960;2022-12-07T01:41:10;100108.91;;;-8.22;57.17
75045;BME280;63614;56.026;35.960;2022-12-07T01:44:06;100091.22;;;-8.21;57.36
75045;BME280;63614;56.026;35.960;2022-12-07T01:46:22;100097.28;;;-8.26;57.29
75045;BME280;63614;56.026;35.960;2022-12-07T01:48:49;100090.38;;;-8.21;57.04
75045;BME280;63614;56.026;35.960;2022-12-07T01:51:15;100085.38;;;-8.23;57.25
75045;BME280;63614;56.026;35.960;2022-12-07T01:53:43;100092.28;;;-8.28;57.06
75045;BME280;63614;56.026;35.960;2022-12-07T01:56:15;100090.84;;;-8.35;57.81
75045;BME280;63614;56.026;35.960;2022-12-07T01:58:43;100092.19;;;-8.25;57.46
75045;BME280;63614;56.026;35.960;2022-12-07T02:01:09;100090.69;;;-8.30;57.08
75045;BME280;63614;56.026;35.960;2022-12-07T02:03:41;100098.41;;;-8.35;57.60
75045;BME280;63614;56.026;35.960;2022-12-07T02:06:08;100093.88;;;-8.25;56.98
75045;BME280;63614;56.026;35.960;2022-12-07T02:08:35;100087.19;;;-8.26;57.07
75045;BME280;63614;56.026;35.960;2022-12-07T02:11:05;100091.66;;;-8.34;57.23
75045;BME280;63614;56.026;35.960;2022-12-07T02:13:35;100084.88;;;-8.32;57.51
75045;BME280;63614;56.026;35.960;2022-12-07T02:21:32;100096.81;;;-8.37;57.30
75045;BME280;63614;56.026;35.960;2022-12-07T02:30:08;100089.06;;;-8.33;57.26
75045;BME280;63614;56.026;35.960;2022-12-07T02:35:32;100093.59;;;-8.43;57.80
75045;BME280;63614;56.026;35.960;2022-12-07T02:41:06;100080.13;;;-8.42;57.37
75045;BME280;63614;56.026;35.960;2022-12-07T02:43:46;100084.31;;;-8.41;56.96
75045;BME280;63614;56.026;35.960;2022-12-07T02:46:16;100080.75;;;-8.35;56.91
75045;BME280;63614;56.026;35.960;2022-12-07T02:48:43;100082.72;;;-8.43;57.58
75045;BME280;63614;56.026;35.960;2022-12-07T02:51:11;100083.16;;;-8.32;56.65
75045;BME280;63614;56.026;35.960;2022-12-07T02:53:39;100085.13;;;-8.40;56.75
75045;BME280;63614;56.026;35.960;2022-12-07T02:59:25;100085.53;;;-8.52;57.21
75045;BME280;63614;56.026;35.960;2022-12-07T03:12:41;100068.06;;;-8.59;57.12
75045;BME280;63614;56.026;35.960;2022-12-07T03:15:20;100065.59;;;-8.60;57.21
75045;BME280;63614;56.026;35.960;2022-12-07T03:17:49;100068.97;;;-8.60;57.29
75045;BME280;63614;56.026;35.960;2022-12-07T03:20:19;100070.91;;;-8.68;57.22
75045;BME280;63614;56.026;35.960;2022-12-07T03:22:47;100061.78;;;-8.72;57.31
75045;BME280;63614;56.026;35.960;2022-12-07T03:25:15;100065.91;;;-8.69;57.53
75045;BME280;63614;56.026;35.960;2022-12-07T03:27:54;100072.16;;;-8.81;57.47
75045;BME280;63614;56.026;35.960;2022-12-07T03:30:46;100055.22;;;-8.78;57.33
75045;BME280;63614;56.026;35.960;2022-12-07T03:33:22;100055.03;;;-8.71;57.04
75045;BME280;63614;56.026;35.960;2022-12-07T03:36:09;100053.34;;;-8.71;57.12
75045;BME280;63614;56.026;35.960;2022-12-07T03:39:27;100047.63;;;-8.76;57.24
75045;BME280;63614;56.026;35.960;2022-12-07T03:41:54;100050.22;;;-8.79;57.43
75045;BME280;63614;56.026;35.960;2022-12-07T03:44:21;100047.13;;;-8.87;57.41
75045;BME280;63614;56.026;35.960;2022-12-07T03:47:06;100035.09;;;-8.79;57.33
75045;BME280;63614;56.026;35.960;2022-12-07T03:49:43;100045.88;;;-8.74;57.06
75045;BME280;63614;56.026;35.960;2022-12-07T03:52:32;100044.41;;;-8.81;57.20
75045;BME280;63614;56.026;35.960;2022-12-07T03:55:11;100046.22;;;-8.85;57.27
75045;BME280;63614;56.026;35.960;2022-12-07T03:57:41;100041.84;;;-8.80;57.22
75045;BME280;63614;56.026;35.960;2022-12-07T04:00:10;100047.56;;;-8.74;56.85
75045;BME280;63614;56.026;35.960;2022-12-07T04:02:40;100044.84;;;-8.68;56.73
75045;BME280;63614;56.026;35.960;2022-12-07T04:05:07;100041.13;;;-8.83;57.24
75045;BME280;63614;56.026;35.960;2022-12-07T04:07:33;100042.97;;;-8.88;57.39
75045;BME280;63614;56.026;35.960;2022-12-07T04:09:59;100040.59;;;-8.93;57.28
75045;BME280;63614;56.026;35.960;2022-12-07T04:12:25;100047.94;;;-8.85;57.33
75045;BME280;63614;56.026;35.960;2022-12-07T04:14:51;100043.59;;;-8.82;57.13
75045;BME280;63614;56.026;35.960;2022-12-07T04:17:16;100036.84;;;-8.81;56.87
75045;BME280;63614;56.026;35.960;2022-12-07T04:19:42;100029.28;;;-8.81;56.92
75045;BME280;63614;56.026;35.960;2022-12-07T04:22:08;100038.91;;;-8.66;56.56
75045;BME280;63614;56.026;35.960;2022-12-07T04:24:34;100036.56;;;-8.72;56.43
75045;BME280;63614;56.026;35.960;2022-12-07T04:27:00;100042.91;;;-8.60;56.19
75045;BME280;63614;56.026;35.960;2022-12-07T04:29:26;100037.81;;;-8.59;56.21
75045;BME280;63614;56.026;35.960;2022-12-07T04:31:52;100027.53;;;-8.79;56.35
75045;BME280;63614;56.026;35.960;2022-12-07T04:34:18;100035.66;;;-8.69;56.08
75045;BME280;63614;56.026;35.960;2022-12-07T04:36:45;100024.69;;;-8.68;55.88
75045;BME280;63614;56.026;35.960;2022-12-07T04:39:23;100029.34;;;-8.83;56.16
75045;BME280;63614;56.026;35.960;2022-12-07T04:41:49;100029.00;;;-8.99;56.71
75045;BME280;63614;56.026;35.960;2022-12-07T04:44:15;100028.53;;;-9.11;56.83
75045;BME280;63614;56.026;35.960;2022-12-07T04:46:42;100021.94;;;-9.14;57.40
75045;BME280;63614;56.026;35.960;2022-12-07T04:49:08;100022.06;;;-9.19;57.48
75045;BME280;63614;56.026;35.960;2022-12-07T04:51:34;100017.78;;;-9.17;57.27
75045;BME280;63614;56.026;35.960;2022-12-07T04:54:00;100022.00;;;-9.17;57.40
75045;BME280;63614;56.026;35.960;2022-12-07T04:56:26;100017.22;;;-9.25;57.47
75045;BME280;63614;56.026;35.960;2022-12-07T04:58:53;100021.78;;;-9.38;57.68
75045;BME280;63614;56.026;35.960;2022-12-07T05:01:20;100027.63;;;-9.37;57.63
75045;BME280;63614;56.026;35.960;2022-12-07T05:03:48;100021.97;;;-9.44;58.12
75045;BME280;63614;56.026;35.960;2022-12-07T05:06:14;100027.84;;;-9.45;58.18
75045;BME280;63614;56.026;35.960;2022-12-07T05:08:40;100027.22;;;-9.52;58.12
75045;BME280;63614;56.026;35.960;2022-12-07T05:11:07;100029.69;;;-9.50;58.56
75045;BME280;63614;56.026;35.960;2022-12-07T05:13:33;100029.81;;;-9.55;58.46
75045;BME280;63614;56.026;35.960;2022-12-07T05:15:59;100022.31;;;-9.56;58.72
75045;BME280;63614;56.026;35.960;2022-12-07T05:18:25;100026.22;;;-9.46;58.55
75045;BME280;63614;56.026;35.960;2022-12-07T05:20:51;100029.94;;;-9.59;58.83
75045;BME280;63614;56.026;35.960;2022-12-07T05:23:17;100032.72;;;-9.69;59.57
75045;BME280;63614;56.026;35.960;2022-12-07T05:25:43;100026.03;;;-9.68;59.20
75045;BME280;63614;56.026;35.960;2022-12-07T05:28:10;100026.56;;;-9.58;59.28
75045;BME280;63614;56.026;35.960;2022-12-07T05:30:36;100021.97;;;-9.74;59.36
75045;BME280;63614;56.026;35.960;2022-12-07T05:33:04;100022.47;;;-9.62;59.12
75045;BME280;63614;56.026;35.960;2022-12-07T05:35:30;100019.28;;;-9.68;59.55
75045;BME280;63614;56.026;35.960;2022-12-07T05:37:56;100008.59;;;-9.76;59.73
75045;BME280;63614;56.026;35.960;2022-12-07T05:40:23;100014.38;;;-9.72;59.61
75045;BME280;63614;56.026;35.960;2022-12-07T05:42:49;100008.44;;;-9.70;59.80
75045;BME280;63614;56.026;35.960;2022-12-07T05:45:15;100005.78;;;-9.65;59.74
75045;BME280;63614;56.026;35.960;2022-12-07T05:47:41;100009.50;;;-9.78;59.88
75045;BME280;63614;56.026;35.960;2022-12-07T05:50:07;100008.34;;;-9.66;59.86
75045;BME280;63614;56.026;35.960;2022-12-07T05:52:33;100014.94;;;-9.62;59.76
75045;BME280;63614;56.026;35.960;2022-12-07T05:54:59;100011.97;;;-9.77;60.08
75045;BME280;63614;56.026;35.960;2022-12-07T05:57:25;100008.34;;;-9.66;59.63
75045;BME280;63614;56.026;35.960;2022-12-07T05:59:50;100007.38;;;-9.62;60.23
75045;BME280;63614;56.026;35.960;2022-12-07T06:02:16;100010.75;;;-9.62;60.13
75045;BME280;63614;56.026;35.960;2022-12-07T06:04:45;100004.78;;;-9.59;60.13
75045;BME280;63614;56.026;35.960;2022-12-07T06:07:14;100004.00;;;-9.61;60.03
75045;BME280;63614;56.026;35.960;2022-12-07T06:09:40;100002.34;;;-9.62;60.07
75045;BME280;63614;56.026;35.960;2022-12-07T06:12:06;100003.16;;;-9.60;59.98
75045;BME280;63614;56.026;35.960;2022-12-07T06:14:53;99996.22;;;-9.54;60.23
75045;BME280;63614;56.026;35.960;2022-12-07T06:17:19;100012.03;;;-9.48;60.01
75045;BME280;63614;56.026;35.960;2022-12-07T06:19:44;100004.47;;;-9.48;59.99
75045;BME280;63614;56.026;35.960;2022-12-07T06:22:11;100004.19;;;-9.39;59.93
75045;BME280;63614;56.026;35.960;2022-12-07T06:24:38;99989.13;;;-9.41;59.79
75045;BME280;63614;56.026;35.960;2022-12-07T06:27:04;100003.19;;;-9.34;59.78
75045;BME280;63614;56.026;35.960;2022-12-07T06:29:30;100002.09;;;-9.25;59.77
75045;BME280;63614;56.026;35.960;2022-12-07T06:31:56;99999.34;;;-9.17;59.66
75045;BME280;63614;56.026;35.960;2022-12-07T06:34:23;100001.66;;;-9.11;59.35
75045;BME280;63614;56.026;35.960;2022-12-07T06:36:50;99999.97;;;-9.10;59.43
75045;BME280;63614;56.026;35.960;2022-12-07T06:39:20;99991.56;;;-9.11;59.42
75045;BME280;63614;56.026;35.960;2022-12-07T06:41:46;99993.94;;;-9.06;59.56
75045;BME280;63614;56.026;35.960;2022-12-07T06:44:12;99986.66;;;-9.14;59.75
75045;BME280;63614;56.026;35.960;2022-12-07T06:46:38;99988.28;;;-9.13;60.22
75045;BME280;63614;56.026;35.960;2022-12-07T06:49:05;99980.53;;;-9.07;59.54
75045;BME280;63614;56.026;35.960;2022-12-07T06:51:31;99986.34;;;-9.05;59.71
75045;BME280;63614;56.026;35.960;2022-12-07T06:53:58;99985.94;;;-8.92;59.44
75045;BME280;63614;56.026;35.960;2022-12-07T06:56:23;99981.72;;;-8.92;59.58
75045;BME280;63614;56.026;35.960;2022-12-07T06:58:49;99979.16;;;-8.90;59.35
75045;BME280;63614;56.026;35.960;2022-12-07T07:01:17;99987.47;;;-8.87;59.34
75045;BME280;63614;56.026;35.960;2022-12-07T07:03:44;99981.47;;;-8.84;59.56
75045;BME280;63614;56.026;35.960;2022-12-07T07:06:12;99978.72;;;-8.77;59.08
75045;BME280;63614;56.026;35.960;2022-12-07T07:08:39;99988.56;;;-8.69;58.97
75045;BME280;63614;56.026;35.960;2022-12-07T07:11:07;99973.94;;;-8.59;58.77
75045;BME280;63614;56.026;35.960;2022-12-07T07:13:33;99971.78;;;-8.70;59.02
75045;BME280;63614;56.026;35.960;2022-12-07T07:15:59;99978.88;;;-8.56;58.66
75045;BME280;63614;56.026;35.960;2022-12-07T07:18:25;99977.28;;;-8.59;58.76
75045;BME280;63614;56.026;35.960;2022-12-07T07:20:52;99972.03;;;-8.52;58.38
75045;BME280;63614;56.026;35.960;2022-12-07T07:23:19;99979.41;;;-8.46;58.47
75045;BME280;63614;56.026;35.960;2022-12-07T07:25:45;99977.56;;;-8.43;58.45
75045;BME280;63614;56.026;35.960;2022-12-07T07:28:11;99975.16;;;-8.46;58.40
75045;BME280;63614;56.026;35.960;2022-12-07T07:30:37;99973.53;;;-8.47;58.64
75045;BME280;63614;56.026;35.960;2022-12-07T07:33:04;99971.38;;;-8.34;58.11
75045;BME280;63614;56.026;35.960;2022-12-07T07:35:31;99974.97;;;-8.41;58.26
75045;BME280;63614;56.026;35.960;2022-12-07T07:37:57;99965.34;;;-8.30;57.90
75045;BME280;63614;56.026;35.960;2022-12-07T07:40:23;99966.19;;;-8.29;58.31
75045;BME280;63614;56.026;35.960;2022-12-07T07:42:53;99972.91;;;-8.30;58.31
75045;BME280;63614;56.026;35.960;2022-12-07T07:45:20;99970.31;;;-8.28;58.13
75045;BME280;63614;56.026;35.960;2022-12-07T07:47:47;99962.34;;;-8.16;57.71
75045;BME280;63614;56.026;35.960;2022-12-07T07:50:13;99964.91;;;-8.17;57.98
75045;BME280;63614;56.026;35.960;2022-12-07T07:52:39;99971.97;;;-8.27;58.10
75045;BME280;63614;56.026;35.960;2022-12-07T07:55:06;99967.50;;;-8.19;58.35
75045;BME280;63614;56.026;35.960;2022-12-07T07:57:35;99966.78;;;-8.23;58.21
75045;BME280;63614;56.026;35.960;2022-12-07T08:00:05;99964.53;;;-8.07;57.62
75045;BME280;63614;56.026;35.960;2022-12-07T08:02:39;99955.09;;;-8.01;57.78
75045;BME280;63614;56.026;35.960;2022-12-07T08:05:06;99956.38;;;-7.90;57.56
75045;BME280;63614;56.026;35.960;2022-12-07T08:07:32;99959.44;;;-8.05;57.72
75045;BME280;63614;56.026;35.960;2022-12-07T08:09:57;99950.84;;;-8.01;57.71
75045;BME280;63614;56.026;35.960;2022-12-07T08:12:23;99947.34;;;-7.97;57.71
75045;BME280;63614;56.026;35.960;2022-12-07T08:14:49;99941.13;;;-7.88;57.64
75045;BME280;63614;56.026;35.960;2022-12-07T08:17:15;99940.09;;;-7.82;57.59
75045;BME280;63614;56.026;35.960;2022-12-07T08:19:41;99927.81;;;-7.92;57.83
75045;BME280;63614;56.026;35.960;2022-12-07T08:22:07;99917.91;;;-7.74;57.46
75045;BME280;63614;56.026;35.960;2022-12-07T08:24:34;99924.78;;;-7.78;57.60
75045;BME280;63614;56.026;35.960;2022-12-07T08:27:00;99922.84;;;-7.71;57.47
75045;BME280;63614;56.026;35.960;2022-12-07T08:29:26;99920.66;;;-7.58;57.56
75045;BME280;63614;56.026;35.960;2022-12-07T08:31:52;99911.31;;;-7.56;57.45
75045;BME280;63614;56.026;35.960;2022-12-07T08:34:18;99910.03;;;-7.67;57.80
75045;BME280;63614;56.026;35.960;2022-12-07T08:36:43;99912.63;;;-7.68;57.76
75045;BME280;63614;56.026;35.960;2022-12-07T08:39:10;99908.84;;;-7.58;57.88
75045;BME280;63614;56.026;35.960;2022-12-07T08:41:35;99915.66;;;-7.60;57.83
75045;BME280;63614;56.026;35.960;2022-12-07T08:44:01;99912.44;;;-7.63;58.11
75045;BME280;63614;56.026;35.960;2022-12-07T08:46:40;99906.97;;;-7.53;58.23
75045;BME280;63614;56.026;35.960;2022-12-07T08:49:22;99905.22;;;-7.51;57.99
75045;BME280;63614;56.026;35.960;2022-12-07T08:51:49;99910.91;;;-7.45;57.95
75045;BME280;63614;56.026;35.960;2022-12-07T08:54:17;99902.84;;;-7.55;58.07
75045;BME280;63614;56.026;35.960;2022-12-07T08:56:45;99898.81;;;-7.59;58.40
75045;BME280;63614;56.026;35.960;2022-12-07T08:59:12;99905.09;;;-7.47;58.04
75045;BME280;63614;56.026;35.960;2022-12-07T09:01:40;99905.72;;;-7.42;58.14
75045;BME280;63614;56.026;35.960;2022-12-07T09:04:05;99902.03;;;-7.34;58.05
75045;BME280;63614;56.026;35.960;2022-12-07T09:06:31;99899.72;;;-7.18;57.81
75045;BME280;63614;56.026;35.960;2022-12-07T09:09:00;99893.66;;;-7.36;57.37
75045;BME280;63614;56.026;35.960;2022-12-07T09:11:27;99892.16;;;-7.40;57.97
75045;BME280;63614;56.026;35.960;2022-12-07T09:13:53;99889.13;;;-7.27;57.76
75045;BME280;63614;56.026;35.960;2022-12-07T09:16:19;99882.63;;;-7.33;57.68
75045;BME280;63614;56.026;35.960;2022-12-07T09:18:45;99891.97;;;-7.35;57.73
75045;BME280;63614;56.026;35.960;2022-12-07T09:21:10;99881.22;;;-7.20;57.46
75045;BME280;63614;56.026;35.960;2022-12-07T09:23:36;99887.69;;;-7.33;57.51
75045;BME280;63614;56.026;35.960;2022-12-07T09:26:03;99878.53;;;-7.15;57.43
75045;BME280;63614;56.026;35.960;2022-12-07T09:28:30;99876.47;;;-7.27;57.42
75045;BME280;63614;56.026;35.960;2022-12-07T09:30:56;99874.94;;;-7.09;57.14
75045;BME280;63614;56.026;35.960;2022-12-07T09:33:22;99865.81;;;-7.14;57.28
75045;BME280;63614;56.026;35.960;2022-12-07T09:35:50;99876.56;;;-7.29;57.46
75045;BME280;63614;56.026;35.960;2022-12-07T09:38:16;99876.06;;;-7.17;57.58
75045;BME280;63614;56.026;35.960;2022-12-07T09:40:43;99865.88;;;-7.15;57.17
75045;BME280;63614;56.026;35.960;2022-12-07T09:43:21;99862.66;;;-7.19;57.30
75045;BME280;63614;56.026;35.960;2022-12-07T09:45:51;99858.03;;;-7.09;57.17
75045;BME280;63614;56.026;35.960;2022-12-07T09:48:21;99856.22;;;-7.05;56.97
75045;BME280;63614;56.026;35.960;2022-12-07T09:50:57;99860.00;;;-6.95;56.87
75045;BME280;63614;56.026;35.960;2022-12-07T09:55:54;99852.50;;;-6.97;56.86
75045;BME280;63614;56.026;35.960;2022-12-07T09:58:25;99845.16;;;-7.03;56.83
75045;BME280;63614;56.026;35.960;2022-12-07T10:01:21;99845.31;;;-6.87;56.94
75045;BME280;63614;56.026;35.960;2022-12-07T10:03:53;99849.56;;;-6.87;56.54
75045;BME280;63614;56.026;35.960;2022-12-07T10:06:19;99837.31;;;-6.97;56.68
75045;BME280;63614;56.026;35.960;2022-12-07T10:08:46;99839.47;;;-6.87;56.69
75045;BME280;63614;56.026;35.960;2022-12-07T10:11:12;99834.34;;;-6.86;56.48
75045;BME280;63614;56.026;35.960;2022-12-07T10:13:45;99837.13;;;-6.92;56.49
75045;BME280;63614;56.026;35.960;2022-12-07T10:18:58;99821.34;;;-6.78;55.94
75045;BME280;63614;56.026;35.960;2022-12-07T10:22:09;99811.78;;;-6.71;55.95
75045;BME280;63614;56.026;35.960;2022-12-07T10:24:36;99814.81;;;-6.63;55.41
75045;BME280;63614;56.026;35.960;2022-12-07T10:27:05;99814.88;;;-6.65;55.38
75045;BME280;63614;56.026;35.960;2022-12-07T10:29:38;99809.06;;;-6.67;55.20
75045;BME280;63614;56.026;35.960;2022-12-07T10:32:06;99801.69;;;-6.71;55.14
75045;BME280;63614;56.026;35.960;2022-12-07T10:34:52;99803.91;;;-6.84;55.63
75045;BME280;63614;56.026;35.960;2022-12-07T10:37:40;99785.91;;;-6.78;55.24
75045;BME280;63614;56.026;35.960;2022-12-07T10:40:24;99784.97;;;-6.76;55.10
75045;BME280;63614;56.026;35.960;2022-12-07T10:43:20;99782.44;;;-6.76;55.38
75045;BME280;63614;56.026;35.960;2022-12-07T10:48:33;99784.72;;;-6.69;55.32
75045;BME280;63614;56.026;35.960;2022-12-07T10:51:11;99785.84;;;-6.77;55.03
75045;BME280;63614;56.026;35.960;2022-12-07T10:54:10;99781.00;;;-6.62;55.04
75045;BME280;63614;56.026;35.960;2022-12-07T10:59:52;99773.41;;;-6.62;55.31
75045;BME280;63614;56.026;35.960;2022-12-07T11:02:35;99764.81;;;-6.58;55.06
75045;BME280;63614;56.026;35.960;2022-12-07T11:05:39;99770.81;;;-6.61;55.21
75045;BME280;63614;56.026;35.960;2022-12-07T11:13:52;99765.47;;;-6.54;55.00
75045;BME280;63614;56.026;35.960;2022-12-07T11:24:19;99754.09;;;-6.63;55.11
75045;BME280;63614;56.026;35.960;2022-12-07T11:27:10;99741.75;;;-6.52;54.93
75045;BME280;63614;56.026;35.960;2022-12-07T11:32:52;99741.28;;;-6.60;54.94
75045;BME280;63614;56.026;35.960;2022-12-07T11:38:12;99737.03;;;-6.60;54.84
75045;BME280;63614;56.026;35.960;2022-12-07T11:40:40;99732.59;;;-6.54;54.63
75045;BME280;63614;56.026;35.960;2022-12-07T11:43:20;99732.06;;;-6.61;54.59
75045;BME280;63614;56.026;35.960;2022-12-07T11:49:07;99720.72;;;-6.52;54.86
75045;BME280;63614;56.026;35.960;2022-12-07T11:51:38;99719.25;;;-6.58;54.76
75045;BME280;63614;56.026;35.960;2022-12-07T11:54:32;99725.97;;;-6.57;54.96
75045;BME280;63614;56.026;35.960;2022-12-07T11:57:10;99719.53;;;-6.64;55.03
75045;BME280;63614;56.026;35.960;2022-12-07T11:59:43;99710.94;;;-6.60;55.23
75045;BME280;63614;56.026;35.960;2022-12-07T12:02:28;99713.41;;;-6.59;55.30
75045;BME280;63614;56.026;35.960;2022-12-07T12:07:39;99721.19;;;-6.63;54.96
75045;BME280;63614;56.026;35.960;2022-12-07T12:10:13;99712.94;;;-6.67;54.92
75045;BME280;63614;56.026;35.960;2022-12-07T12:16:07;99711.91;;;-6.82;55.40
75045;BME280;63614;56.026;35.960;2022-12-07T12:18:58;99702.38;;;-6.77;54.99
75045;BME280;63614;56.026;35.960;2022-12-07T12:21:31;99699.19;;;-6.80;54.97
75045;BME280;63614;56.026;35.960;2022-12-07T12:24:05;99694.19;;;-6.82;54.88
75045;BME280;63614;56.026;35.960;2022-12-07T12:26:37;99691.06;;;-6.87;55.15
75045;BME280;63614;56.026;35.960;2022-12-07T12:29:21;99697.75;;;-6.86;55.57
75045;BME280;63614;56.026;35.960;2022-12-07T12:32:06;99707.03;;;-6.86;55.50
75045;BME280;63614;56.026;35.960;2022-12-07T12:34:57;99707.94;;;-6.87;55.26
75045;BME280;63614;56.026;35.960;2022-12-07T12:37:39;99697.34;;;-6.96;55.96
75045;BME280;63614;56.026;35.960;2022-12-07T12:42:54;99697.00;;;-7.07;56.06
75045;BME280;63614;56.026;35.960;2022-12-07T12:45:22;99689.69;;;-7.13;56.41
75045;BME280;63614;56.026;35.960;2022-12-07T12:47:56;99699.09;;;-7.17;56.48
75045;BME280;63614;56.026;35.960;2022-12-07T12:53:34;99683.78;;;-7.33;56.78
75045;BME280;63614;56.026;35.960;2022-12-07T13:20:57;99676.03;;;-7.49;56.51
75045;BME280;63614;56.026;35.960;2022-12-07T13:32:17;99668.91;;;-7.78;56.91
75045;BME280;63614;56.026;35.960;2022-12-07T13:34:47;99663.06;;;-7.80;57.02
75045;BME280;63614;56.026;35.960;2022-12-07T13:37:30;99663.25;;;-7.85;57.00
75045;BME280;63614;56.026;35.960;2022-12-07T13:39:59;99662.94;;;-7.77;57.20
75045;BME280;63614;56.026;35.960;2022-12-07T13:44:52;99660.66;;;-7.83;57.26
75045;BME280;63614;56.026;35.960;2022-12-07T13:47:41;99646.31;;;-7.81;57.67
75045;BME280;63614;56.026;35.960;2022-12-07T13:50:24;99645.16;;;-7.95;57.60
75045;BME280;63614;56.026;35.960;2022-12-07T13:52:54;99624.97;;;-7.95;57.46
75045;BME280;63614;56.026;35.960;2022-12-07T13:55:21;99632.59;;;-7.96;57.81
75045;BME280;63614;56.026;35.960;2022-12-07T13:57:51;99625.78;;;-7.94;58.01
75045;BME280;63614;56.026;35.960;2022-12-07T14:00:20;99632.41;;;-7.92;58.15
75045;BME280;63614;56.026;35.960;2022-12-07T14:03:03;99641.06;;;-7.97;58.48
75045;BME280;63614;56.026;35.960;2022-12-07T14:05:31;99619.03;;;-7.94;58.50
75045;BME280;63614;56.026;35.960;2022-12-07T14:10:28;99626.03;;;-8.00;58.81
75045;BME280;63614;56.026;35.960;2022-12-07T14:12:55;99631.78;;;-7.97;58.96
75045;BME280;63614;56.026;35.960;2022-12-07T14:15:29;99617.63;;;-8.01;59.43
75045;BME280;63614;56.026;35.960;2022-12-07T14:17:57;99633.03;;;-7.87;59.13
75045;BME280;63614;56.026;35.960;2022-12-07T14:20:35;99636.19;;;-7.81;59.38
75045;BME280;63614;56.026;35.960;2022-12-07T14:23:02;99635.72;;;-7.90;59.55
75045;BME280;63614;56.026;35.960;2022-12-07T14:26:07;99626.41;;;-7.89;59.50
75045;BME280;63614;56.026;35.960;2022-12-07T14:28:35;99628.94;;;-7.89;59.61
75045;BME280;63614;56.026;35.960;2022-12-07T14:31:02;99635.06;;;-7.95;59.90
75045;BME280;63614;56.026;35.960;2022-12-07T14:33:29;99624.69;;;-7.89;59.98
75045;BME280;63614;56.026;35.960;2022-12-07T14:35:55;99638.78;;;-7.83;60.06
75045;BME280;63614;56.026;35.960;2022-12-07T14:38:24;99626.72;;;-7.76;59.99
75045;BME280;63614;56.026;35.960;2022-12-07T14:40:51;99630.31;;;-7.82;59.95
75045;BME280;63614;56.026;35.960;2022-12-07T14:43:18;99635.09;;;-7.76;59.79
75045;BME280;63614;56.026;35.960;2022-12-07T14:45:45;99634.66;;;-7.65;59.76
75045;BME280;63614;56.026;35.960;2022-12-07T14:48:12;99645.00;;;-7.71;59.89
75045;BME280;63614;56.026;35.960;2022-12-07T14:50:42;99643.06;;;-7.85;60.20
75045;BME280;63614;56.026;35.960;2022-12-07T14:53:15;99651.78;;;-7.72;60.26
75045;BME280;63614;56.026;35.960;2022-12-07T14:55:42;99642.13;;;-7.82;60.47